YRNW weather

Ringwood Airport
Northern Territory, Australia

Public forecast

Using degrees Celsius for public forecast. Weather courtesy of forecast.io.

METAR (pilot weather report)

Closest report is Alice Springs Airport, 58.2 nm (107.9 km) W. Retrieved 2019/03/22 05:30 UTC (15 minutes ago):

YBAS 220530Z AUTO 11014KT 9999 // NCD 38/01 Q1009 RF00.0/000.0

TAF (pilot weather forecast)

Forecast is more than 12 hours old.

Closest forecast is Alice Springs Airport, 58.2 nm (107.9 km) W. Retrieved 2019/03/21 00:00 UTC (1 day ago):

TAF YBAS 212309Z 2200/2224 11011KT CAVOK FM220900 10006KT CAVOK FM221600 30005KT CAVOK FM222300 06010KT CAVOK